createdAt,value
2022-11-25T00:01:33.715Z,26.17
2022-11-25T00:04:03.390Z,29.48
2022-11-25T00:06:35.799Z,23.85
2022-11-25T00:09:09.871Z,22.83
2022-11-25T00:11:40.753Z,21.83
2022-11-25T00:14:12.080Z,27.45
2022-11-25T00:16:47.748Z,33.55
2022-11-25T00:19:17.660Z,19.45
2022-11-25T00:21:47.618Z,23.92
2022-11-25T00:24:17.425Z,22.13
2022-11-25T00:26:47.100Z,22.45
2022-11-25T00:29:16.511Z,25.25
2022-11-25T00:31:43.751Z,22.77
2022-11-25T00:34:13.449Z,25.48
2022-11-25T00:36:42.657Z,19.73
2022-11-25T00:39:17.651Z,22.05
2022-11-25T00:42:04.761Z,22.80
2022-11-25T00:44:41.874Z,20.88
2022-11-25T00:47:17.748Z,19.65
2022-11-25T00:49:49.514Z,20.08
2022-11-25T00:52:22.134Z,19.13
2022-11-25T00:54:52.506Z,21.90
2022-11-25T00:57:22.012Z,21.67
2022-11-25T00:59:49.320Z,17.27
2022-11-25T01:02:17.907Z,19.77
2022-11-25T01:04:45.446Z,24.00
2022-11-25T01:07:17.158Z,22.25
2022-11-25T01:09:47.604Z,21.55
2022-11-25T01:12:14.625Z,24.80
2022-11-25T01:14:48.718Z,20.35
2022-11-25T01:17:15.970Z,22.92
2022-11-25T01:19:45.390Z,34.85
2022-11-25T01:22:12.327Z,23.33
2022-11-25T01:24:45.057Z,21.58
2022-11-25T01:27:12.088Z,27.13
2022-11-25T01:29:41.490Z,25.70
2022-11-25T01:32:10.703Z,21.88
2022-11-25T01:34:39.690Z,20.85
2022-11-25T01:37:06.805Z,18.60
2022-11-25T01:39:35.932Z,16.27
2022-11-25T01:42:03.001Z,15.57
2022-11-25T01:44:34.046Z,18.13
2022-11-25T01:47:13.025Z,17.33
2022-11-25T01:49:46.662Z,17.90
2022-11-25T01:52:28.927Z,16.80
2022-11-25T01:55:05.887Z,20.35
2022-11-25T01:57:43.530Z,18.98
2022-11-25T02:00:11.741Z,21.55
2022-11-25T02:02:48.800Z,11.68
2022-11-25T02:05:21.665Z,16.95
2022-11-25T02:07:51.397Z,15.00
2022-11-25T02:10:27.811Z,17.48
2022-11-25T02:12:55.600Z,15.77
2022-11-25T02:15:27.750Z,20.17
2022-11-25T02:17:54.818Z,21.45
2022-11-25T02:20:25.555Z,19.80
2022-11-25T02:23:12.666Z,21.83
2022-11-25T02:25:41.390Z,20.23
2022-11-25T02:28:16.557Z,19.08
2022-11-25T02:30:44.648Z,19.45
2022-11-25T02:33:11.967Z,20.08
2022-11-25T02:38:39.744Z,19.05
2022-11-25T02:41:08.730Z,19.67
2022-11-25T02:43:38.569Z,20.35
2022-11-25T02:46:20.396Z,18.98
2022-11-25T02:51:44.829Z,24.20
2022-11-25T02:54:13.911Z,20.42
2022-11-25T02:56:44.553Z,22.02
2022-11-25T02:59:14.240Z,18.90
2022-11-25T03:01:44.060Z,19.05
2022-11-25T03:04:13.293Z,15.80
2022-11-25T03:06:40.396Z,19.33
2022-11-25T03:09:09.848Z,20.15
2022-11-25T03:11:57.185Z,25.35
2022-11-25T03:14:26.869Z,26.05
2022-11-25T03:16:56.199Z,21.95
2022-11-25T03:19:27.983Z,18.80
2022-11-25T03:21:55.026Z,19.25
2022-11-25T03:24:24.431Z,17.42
2022-11-25T03:26:54.079Z,18.63
2022-11-25T03:29:23.701Z,18.38
2022-11-25T03:31:52.984Z,18.75
2022-11-25T03:34:22.048Z,20.10
2022-11-25T03:36:49.804Z,17.55
2022-11-25T03:39:16.965Z,18.40
2022-11-25T03:41:48.674Z,15.52
2022-11-25T03:44:19.015Z,19.10
2022-11-25T03:46:46.195Z,19.48
2022-11-25T03:49:13.212Z,17.23
2022-11-25T03:51:42.632Z,16.88
2022-11-25T03:54:15.264Z,18.25
2022-11-25T03:57:04.865Z,16.25
2022-11-25T03:59:33.812Z,15.82
2022-11-25T04:02:03.593Z,13.98
2022-11-25T04:04:30.797Z,17.83
2022-11-25T04:06:58.665Z,19.05
2022-11-25T04:09:28.034Z,16.67
2022-11-25T04:12:17.690Z,15.32
2022-11-25T04:14:52.241Z,10.95
2022-11-25T04:17:23.381Z,13.18
2022-11-25T04:19:53.559Z,15.02
2022-11-25T04:22:20.570Z,13.35
2022-11-25T04:24:55.059Z,13.88
2022-11-25T04:27:25.637Z,11.18
2022-11-25T04:29:54.800Z,11.55
2022-11-25T04:32:22.711Z,10.73
2022-11-25T04:37:17.851Z,11.18
2022-11-25T04:39:44.768Z,13.07
2022-11-25T04:42:37.974Z,10.57
2022-11-25T04:45:23.131Z,11.13
2022-11-25T04:47:52.492Z,16.73
2022-11-25T04:50:22.123Z,13.05
2022-11-25T04:52:55.669Z,14.67
2022-11-25T04:55:23.725Z,18.02
2022-11-25T05:00:24.376Z,16.13
2022-11-25T05:02:53.612Z,16.63
2022-11-25T05:05:25.304Z,16.20
2022-11-25T05:07:52.378Z,19.60
2022-11-25T05:10:21.013Z,22.33
2022-11-25T05:12:50.265Z,20.27
2022-11-25T05:15:20.769Z,18.42
2022-11-25T05:17:53.350Z,18.52
2022-11-25T05:20:37.343Z,22.77
2022-11-25T05:23:06.586Z,17.63
2022-11-25T05:25:36.326Z,17.90
2022-11-25T05:28:21.966Z,19.88
2022-11-25T05:30:56.081Z,20.38
2022-11-25T05:33:23.215Z,16.20
2022-11-25T05:36:02.112Z,16.00
2022-11-25T05:38:36.175Z,14.80
2022-11-25T05:43:34.797Z,16.80
2022-11-25T05:46:06.520Z,22.60
2022-11-25T05:48:37.357Z,20.23
2022-11-25T05:51:09.047Z,17.52
2022-11-25T05:53:36.485Z,19.98
2022-11-25T05:56:06.530Z,16.67
2022-11-25T05:58:55.130Z,20.50
2022-11-25T06:01:28.722Z,17.05
2022-11-25T06:03:59.238Z,21.77
2022-11-25T06:06:26.345Z,20.35
2022-11-25T06:11:25.525Z,21.67
2022-11-25T06:13:58.029Z,20.90
2022-11-25T06:16:28.591Z,18.10
2022-11-25T06:19:24.532Z,18.20
2022-11-25T06:21:52.410Z,17.20
2022-11-25T06:24:19.633Z,16.13
2022-11-25T06:26:51.852Z,16.42
2022-11-25T06:29:21.232Z,17.20
2022-11-25T06:31:50.784Z,19.42
2022-11-25T06:34:42.879Z,16.77
2022-11-25T06:37:32.941Z,19.42
2022-11-25T06:40:04.764Z,22.20
2022-11-25T06:42:31.740Z,21.70
2022-11-25T06:44:58.723Z,22.13
2022-11-25T06:47:28.742Z,17.92
2022-11-25T06:49:55.756Z,17.52
2022-11-25T06:52:22.761Z,16.52
2022-11-25T06:54:54.486Z,21.30
2022-11-25T06:57:23.646Z,18.45
2022-11-25T06:59:51.351Z,20.92
2022-11-25T07:02:18.379Z,32.95
2022-11-25T07:04:45.385Z,43.70
2022-11-25T07:07:12.615Z,31.52
2022-11-25T07:14:38.607Z,25.80
2022-11-25T07:17:10.462Z,26.83
2022-11-25T07:19:45.540Z,25.10
2022-11-25T07:22:12.584Z,24.17
2022-11-25T07:24:41.664Z,26.58
2022-11-25T07:27:10.685Z,17.95
2022-11-25T07:29:58.221Z,13.73
2022-11-25T07:34:53.511Z,16.85
2022-11-25T07:37:25.175Z,18.30
2022-11-25T07:39:52.399Z,15.27
2022-11-25T07:42:19.330Z,14.45
2022-11-25T07:44:49.150Z,15.20
2022-11-25T07:47:36.348Z,14.63
2022-11-25T07:50:03.897Z,15.15
2022-11-25T07:52:30.844Z,16.38
2022-11-25T07:54:57.663Z,19.05
2022-11-25T07:57:27.201Z,16.17
2022-11-25T07:59:54.157Z,14.43
2022-11-25T08:02:21.069Z,20.33
2022-11-25T08:04:48.139Z,15.75
2022-11-25T08:07:15.136Z,16.40
2022-11-25T08:09:44.652Z,14.82
2022-11-25T08:12:11.600Z,17.55
2022-11-25T08:14:38.713Z,18.13
2022-11-25T08:17:08.182Z,17.80
2022-11-25T08:22:03.675Z,20.13
2022-11-25T08:27:01.306Z,11.98
2022-11-25T08:29:28.332Z,17.65
2022-11-25T08:31:58.564Z,17.38
2022-11-25T08:34:27.728Z,17.13
2022-11-25T08:37:00.999Z,17.75
2022-11-25T08:39:51.244Z,17.85
2022-11-25T08:42:15.960Z,19.90
2022-11-25T08:44:42.947Z,21.15
2022-11-25T08:47:10.228Z,20.77
2022-11-25T08:49:41.146Z,22.67
2022-11-25T08:52:11.900Z,17.80
2022-11-25T08:54:39.027Z,18.92
2022-11-25T08:57:08.548Z,17.00
2022-11-25T08:59:39.204Z,18.17
2022-11-25T09:02:07.196Z,18.25
2022-11-25T09:04:34.397Z,18.15
2022-11-25T09:07:04.963Z,14.07
2022-11-25T09:09:37.149Z,18.20
2022-11-25T09:12:04.424Z,13.68
2022-11-25T09:14:31.481Z,15.38
2022-11-25T09:16:58.545Z,14.48
2022-11-25T09:19:28.519Z,12.13
2022-11-25T09:21:55.566Z,14.27
2022-11-25T09:24:24.645Z,9.65
2022-11-25T09:26:54.795Z,14.02
2022-11-25T09:29:21.703Z,13.77
2022-11-25T09:31:54.544Z,12.10
2022-11-25T09:34:26.707Z,15.82
2022-11-25T09:36:53.814Z,14.40
2022-11-25T09:39:28.122Z,13.35
2022-11-25T09:42:33.486Z,10.80
2022-11-25T09:45:35.576Z,12.43
2022-11-25T09:48:19.891Z,13.07
2022-11-25T09:53:49.627Z,15.13
2022-11-25T09:56:29.788Z,12.77
2022-11-25T09:59:00.379Z,10.93
2022-11-25T10:01:31.063Z,11.60
2022-11-25T10:04:06.897Z,9.38
2022-11-25T10:06:41.816Z,10.98
2022-11-25T10:09:15.717Z,10.07
2022-11-25T10:11:45.572Z,11.32
2022-11-25T10:14:16.682Z,12.10
2022-11-25T10:17:12.939Z,13.57
2022-11-25T10:19:49.624Z,11.07
2022-11-25T10:22:28.584Z,11.88
2022-11-25T10:25:00.292Z,14.93
2022-11-25T10:27:52.176Z,13.93
2022-11-25T10:30:44.192Z,13.18
2022-11-25T10:33:28.718Z,13.35
2022-11-25T10:36:06.850Z,11.63
2022-11-25T10:38:39.641Z,15.27
2022-11-25T18:20:26.474Z,17.67
2022-11-25T18:22:54.022Z,18.17
2022-11-25T18:25:24.463Z,18.23
2022-11-25T18:27:56.728Z,16.92
2022-11-25T18:30:28.130Z,17.08
2022-11-25T18:32:56.289Z,23.67
2022-11-25T18:35:34.135Z,18.27
2022-11-25T18:38:05.383Z,22.92
2022-11-25T18:40:36.639Z,22.17
2022-11-25T18:43:14.546Z,16.23
2022-11-25T18:45:41.800Z,19.00
2022-11-25T18:48:14.366Z,25.35
2022-11-25T18:50:41.502Z,23.35
2022-11-25T18:53:08.449Z,32.17
2022-11-25T18:55:35.426Z,32.00
2022-11-25T18:58:03.054Z,29.52
2022-11-25T19:00:33.100Z,30.00
2022-11-25T19:03:00.729Z,26.40
2022-11-25T19:05:32.925Z,34.78
2022-11-25T19:08:02.581Z,30.83
2022-11-25T19:10:35.364Z,31.70
2022-11-25T19:13:07.286Z,30.63
2022-11-25T19:15:37.270Z,28.23
2022-11-25T19:18:10.904Z,30.17
2022-11-25T19:20:37.910Z,27.58
2022-11-25T19:23:18.722Z,20.50
2022-11-25T19:25:45.889Z,22.67
2022-11-25T19:28:14.510Z,20.77
2022-11-25T19:30:44.733Z,29.52
2022-11-25T19:33:35.000Z,22.02
2022-11-25T19:36:02.178Z,22.95
2022-11-25T19:38:31.040Z,25.15
2022-11-25T19:40:58.499Z,22.20
2022-11-25T19:45:57.069Z,27.67
2022-11-25T19:48:27.275Z,27.95
2022-11-25T19:50:59.768Z,40.70
2022-11-25T19:53:33.741Z,38.33
2022-11-25T19:56:06.316Z,26.58
2022-11-25T19:58:35.719Z,23.50
2022-11-25T20:01:06.620Z,30.05
2022-11-25T20:03:38.457Z,25.77
2022-11-25T20:06:07.999Z,26.67
2022-11-25T20:11:01.814Z,25.35
2022-11-25T20:13:28.961Z,24.20
2022-11-25T20:15:59.219Z,21.50
2022-11-25T20:18:29.724Z,31.48
2022-11-25T20:21:05.870Z,28.45
2022-11-25T20:23:43.599Z,27.05
2022-11-25T20:26:24.156Z,26.08
2022-11-25T20:28:51.159Z,22.92
2022-11-25T20:31:18.097Z,27.27
2022-11-25T20:33:48.585Z,27.33
2022-11-25T20:36:22.408Z,26.00
2022-11-25T20:38:54.691Z,24.97
2022-11-25T20:41:27.938Z,26.42
2022-11-25T20:43:56.462Z,21.98
2022-11-25T20:46:30.154Z,21.92
2022-11-25T20:49:02.411Z,32.13
2022-11-25T20:51:32.003Z,31.10
2022-11-25T20:54:03.642Z,23.80
2022-11-25T20:56:30.871Z,25.80
2022-11-25T21:01:27.882Z,20.70
2022-11-25T21:03:55.111Z,24.58
2022-11-25T21:07:14.652Z,21.98
2022-11-25T21:10:07.871Z,18.48
2022-11-25T21:12:39.512Z,21.65
2022-11-25T21:15:13.751Z,19.35
2022-11-25T21:17:43.235Z,20.10
2022-11-25T21:26:17.999Z,24.45
2022-11-25T21:31:52.511Z,23.95
2022-11-25T21:34:17.865Z,23.90
2022-11-25T21:36:49.062Z,22.95
2022-11-25T21:39:32.447Z,23.67
2022-11-25T21:42:03.363Z,27.08
2022-11-25T21:44:37.301Z,22.58
2022-11-25T21:47:16.615Z,26.27
2022-11-25T21:49:43.883Z,24.77
2022-11-25T21:52:10.912Z,22.70
2022-11-25T21:54:40.731Z,25.42
2022-11-25T21:57:16.186Z,27.25
2022-11-25T21:59:45.103Z,28.30
2022-11-25T22:02:24.018Z,30.15
2022-11-25T22:04:53.904Z,31.10
2022-11-25T22:09:49.842Z,29.33
2022-11-25T22:12:27.962Z,26.77
2022-11-25T22:14:56.012Z,24.40
2022-11-25T22:17:22.937Z,23.50
2022-11-25T22:19:50.565Z,27.35
2022-11-25T22:22:17.937Z,19.27
2022-11-25T22:24:46.154Z,21.17
2022-11-25T22:27:28.337Z,22.27
2022-11-25T22:29:56.274Z,19.23
2022-11-25T22:32:23.329Z,20.20
2022-11-25T22:34:50.296Z,17.35
2022-11-25T22:37:22.256Z,21.40
2022-11-25T22:39:54.958Z,23.13
2022-11-25T22:42:27.811Z,21.00
2022-11-25T22:44:58.789Z,21.73
2022-11-25T22:47:37.011Z,19.52
2022-11-25T22:50:19.071Z,19.35
2022-11-25T22:52:49.546Z,19.77
2022-11-25T22:55:21.447Z,23.98
2022-11-25T22:57:50.243Z,22.60
2022-11-25T23:00:25.635Z,26.02
2022-11-25T23:02:56.479Z,21.77
2022-11-25T23:05:34.101Z,21.45
2022-11-25T23:08:04.683Z,23.50
2022-11-25T23:10:34.030Z,18.73
2022-11-25T23:13:01.132Z,25.73
2022-11-25T23:15:30.640Z,29.33
2022-11-25T23:18:02.505Z,25.63
2022-11-25T23:20:35.801Z,18.27
2022-11-25T23:23:14.041Z,31.55
2022-11-25T23:25:47.011Z,45.65
2022-11-25T23:28:14.475Z,18.30
2022-11-25T23:30:53.911Z,20.88
2022-11-25T23:33:29.899Z,24.02
2022-11-25T23:35:58.351Z,17.55
2022-11-25T23:38:28.891Z,18.63
2022-11-25T23:40:58.353Z,20.27
2022-11-25T23:43:25.366Z,24.00
2022-11-25T23:45:58.664Z,26.65
2022-11-25T23:48:31.565Z,23.55
2022-11-25T23:51:04.500Z,18.42
2022-11-25T23:53:39.900Z,20.65
2022-11-25T23:56:09.404Z,15.57
2022-11-25T23:58:36.380Z,24.45
